Time;durP1;ratioP1;P1;durP2;ratioP2;P2;SDS_P1;SDS_P2;PMS_P1;PMS_P2;Temp;Humidity;BMP_temperature;BMP_pressure;BME280_temperature;BME280_humidity;BME280_pressure;Samples;Min_cycle;Max_cycle;Signal;HPM_P1;HPM_P2
2023/01/22 00:01:47;;;;;;;188.80;66.90;;;;;;;-0.91;100.00;100142.55;104825;1301;22669;-32
2023/01/22 00:04:15;;;;;;;222.10;73.00;;;;;;;-0.98;100.00;100134.38;104855;1301;24272;-31
2023/01/22 00:06:41;;;;;;;170.40;60.30;;;;;;;-0.99;100.00;100130.60;105074;1295;22660;-35
2023/01/22 00:09:06;;;;;;;213.80;67.90;;;;;;;-0.96;100.00;100137.77;104904;1295;24275;-35
2023/01/22 00:11:32;;;;;;;195.90;66.70;;;;;;;-0.98;100.00;100139.48;105047;1298;24301;-35
2023/01/22 00:13:58;;;;;;;189.10;64.10;;;;;;;-1.00;100.00;100145.27;104856;1301;23009;-32
2023/01/22 00:16:23;;;;;;;194.90;65.60;;;;;;;-1.01;100.00;100151.45;104865;1301;24339;-32
2023/01/22 00:18:49;;;;;;;204.40;63.30;;;;;;;-1.04;100.00;100149.06;104806;1303;22801;-32
2023/01/22 00:21:15;;;;;;;160.20;56.70;;;;;;;-1.01;100.00;100146.52;104909;1303;22582;-33
2023/01/22 00:23:41;;;;;;;112.80;41.80;;;;;;;-0.91;100.00;100143.08;105066;1302;23033;-33
2023/01/22 00:26:12;;;;;;;149.70;52.30;;;;;;;-0.89;100.00;100146.08;105042;1301;22575;-34
2023/01/22 00:28:40;;;;;;;103.50;36.80;;;;;;;-0.85;100.00;100152.00;105026;1295;25259;-31
2023/01/22 00:31:06;;;;;;;96.60;40.10;;;;;;;-0.84;100.00;100151.58;104959;1300;24290;-31
2023/01/22 00:33:32;;;;;;;101.60;41.20;;;;;;;-0.77;100.00;100153.55;104826;1302;22678;-36
2023/01/22 00:36:11;;;;;;;115.00;43.50;;;;;;;-0.75;100.00;100152.48;104858;1301;22569;-32
2023/01/22 00:38:37;;;;;;;77.10;29.60;;;;;;;-0.72;100.00;100156.71;105011;1301;22696;-31
2023/01/22 00:41:04;;;;;;;106.20;38.00;;;;;;;-0.66;100.00;100156.69;104944;1303;22861;-35
2023/01/22 00:43:30;;;;;;;94.10;33.80;;;;;;;-0.70;100.00;100157.95;104904;1303;22567;-37
2023/01/22 00:45:56;;;;;;;94.70;36.60;;;;;;;-0.73;100.00;100154.14;104914;1303;24282;-35
2023/01/22 00:48:21;;;;;;;101.90;38.10;;;;;;;-0.78;100.00;100160.27;104851;1303;24303;-35
2023/01/22 00:50:47;;;;;;;87.70;30.90;;;;;;;-0.78;100.00;100163.94;105026;1299;24282;-33
2023/01/22 00:53:13;;;;;;;96.90;39.00;;;;;;;-0.76;100.00;100167.73;104859;1301;24500;-35
2023/01/22 00:55:39;;;;;;;312.20;86.00;;;;;;;-0.81;100.00;100162.39;105027;1301;23473;-35
2023/01/22 00:58:05;;;;;;;214.90;58.30;;;;;;;-0.87;100.00;100159.84;104858;1301;23030;-35
2023/01/22 01:00:30;;;;;;;184.70;54.20;;;;;;;-0.90;100.00;100164.64;105002;1299;24294;-31
2023/01/22 01:05:35;;;;;;;117.40;41.50;;;;;;;-0.90;100.00;100169.56;104838;1303;24249;-31
2023/01/22 01:08:01;;;;;;;103.40;39.60;;;;;;;-0.83;100.00;100174.73;104901;1303;24269;-32
2023/01/22 01:10:26;;;;;;;77.10;31.10;;;;;;;-0.78;100.00;100179.99;104785;1303;22737;-35
2023/01/22 01:12:52;;;;;;;74.50;31.20;;;;;;;-0.78;100.00;100183.84;104928;1301;22847;-35
2023/01/22 01:15:18;;;;;;;92.50;36.40;;;;;;;-0.74;100.00;100180.26;104997;1302;24151;-31
2023/01/22 01:17:45;;;;;;;102.40;33.80;;;;;;;-0.72;100.00;100182.02;105039;1298;23033;-35
2023/01/22 01:20:11;;;;;;;101.90;35.30;;;;;;;-0.75;100.00;100180.98;104839;1300;22951;-31
2023/01/22 01:22:37;;;;;;;64.50;25.80;;;;;;;-0.82;100.00;100185.73;104891;1301;24238;-32
2023/01/22 01:25:03;;;;;;;49.30;21.30;;;;;;;-0.85;100.00;100186.23;105027;1295;24266;-33
2023/01/22 01:27:30;;;;;;;75.90;29.20;;;;;;;-0.81;100.00;100188.44;105037;1301;24403;-34
2023/01/22 01:29:57;;;;;;;61.00;25.60;;;;;;;-0.74;100.00;100191.16;105083;1301;22669;-31
2023/01/22 01:32:23;;;;;;;77.50;33.50;;;;;;;-0.75;100.00;100189.44;104935;1303;23159;-34
2023/01/22 01:34:49;;;;;;;70.90;26.70;;;;;;;-0.69;100.00;100189.55;105033;1301;22656;-34
2023/01/22 01:37:15;;;;;;;89.60;34.20;;;;;;;-0.66;100.00;100189.20;104893;1302;24406;-34
2023/01/22 01:39:41;;;;;;;65.60;28.70;;;;;;;-0.65;100.00;100191.37;104734;1303;22655;-35
2023/01/22 01:42:07;;;;;;;67.10;27.50;;;;;;;-0.69;100.00;100189.22;104935;1301;22798;-31
2023/01/22 01:44:32;;;;;;;77.00;35.60;;;;;;;-0.68;100.00;100186.89;104942;1303;24298;-34
2023/01/22 01:47:04;;;;;;;83.70;33.60;;;;;;;-0.70;100.00;100194.23;104919;1303;24387;-36
2023/01/22 01:49:37;;;;;;;85.50;34.80;;;;;;;-0.74;100.00;100194.99;104839;1303;24357;-35
2023/01/22 01:52:05;;;;;;;89.40;31.50;;;;;;;-0.79;100.00;100192.32;105006;1301;24294;-35
2023/01/22 01:54:31;;;;;;;82.40;36.50;;;;;;;-0.76;100.00;100189.48;104945;1296;24224;-35
2023/01/22 01:57:12;;;;;;;75.80;28.60;;;;;;;-0.79;100.00;100197.09;104986;1299;24370;-32
2023/01/22 01:59:37;;;;;;;93.90;34.90;;;;;;;-0.78;100.00;100195.83;105054;1302;24712;-33
2023/01/22 02:02:03;;;;;;;50.10;21.90;;;;;;;-0.79;100.00;100190.78;104665;1303;24198;-31
2023/01/22 02:04:29;;;;;;;69.70;28.40;;;;;;;-0.77;100.00;100197.83;104874;1299;24288;-35
2023/01/22 02:06:55;;;;;;;54.80;21.70;;;;;;;-0.73;100.00;100194.06;104871;1303;24288;-32
2023/01/22 02:09:21;;;;;;;62.00;26.00;;;;;;;-0.75;100.00;100201.72;105095;1301;24284;-35
2023/01/22 02:11:48;;;;;;;56.60;24.20;;;;;;;-0.72;100.00;100204.16;104896;1302;23003;-32
2023/01/22 02:14:19;;;;;;;51.70;21.80;;;;;;;-0.77;100.00;100196.98;104877;1302;22781;-32
2023/01/22 02:16:45;;;;;;;67.80;21.20;;;;;;;-0.73;100.00;100201.95;104962;1302;26671;-32
2023/01/22 02:19:11;;;;;;;61.70;26.70;;;;;;;-0.67;100.00;100205.58;104835;1303;24314;-35
2023/01/22 02:21:39;;;;;;;53.40;26.20;;;;;;;-0.70;100.00;100201.59;104876;1298;22566;-32
2023/01/22 02:24:07;;;;;;;52.80;23.10;;;;;;;-0.74;100.00;100203.11;104798;1303;22783;-31
2023/01/22 02:26:34;;;;;;;81.30;31.00;;;;;;;-0.69;100.00;100199.24;104960;1297;22795;-34
2023/01/22 02:28:59;;;;;;;68.30;28.30;;;;;;;-0.67;100.00;100202.48;104967;1302;23033;-32
2023/01/22 02:31:25;;;;;;;68.20;26.20;;;;;;;-0.67;100.00;100203.10;104985;1302;22835;-40
2023/01/22 02:33:51;;;;;;;62.10;26.10;;;;;;;-0.69;100.00;100204.12;104887;1301;22800;-35
2023/01/22 02:36:17;;;;;;;80.00;29.90;;;;;;;-0.69;100.00;100203.83;104885;1302;22791;-36
2023/01/22 02:38:43;;;;;;;58.80;26.40;;;;;;;-0.73;100.00;100200.71;104771;1303;22812;-32
2023/01/22 02:41:09;;;;;;;64.40;26.20;;;;;;;-0.76;100.00;100204.42;104895;1303;22763;-33
2023/01/22 02:43:35;;;;;;;68.40;30.00;;;;;;;-0.77;100.00;100203.10;104955;1302;24404;-32
2023/01/22 02:46:01;;;;;;;53.30;24.10;;;;;;;-0.74;100.00;100198.84;105013;1300;23036;-33
2023/01/22 02:48:27;;;;;;;45.80;20.10;;;;;;;-0.72;100.00;100193.81;104947;1303;22610;-32
2023/01/22 02:50:52;;;;;;;74.40;28.80;;;;;;;-0.73;100.00;100192.81;105018;1301;23160;-34
2023/01/22 02:53:18;;;;;;;53.60;24.10;;;;;;;-0.69;100.00;100193.77;104941;1295;23040;-32
2023/01/22 02:55:45;;;;;;;56.20;24.80;;;;;;;-0.68;100.00;100192.33;104963;1301;22681;-34
2023/01/22 02:58:12;;;;;;;62.30;23.80;;;;;;;-0.71;100.00;100196.58;104995;1301;22719;-31
2023/01/22 03:00:37;;;;;;;58.60;24.70;;;;;;;-0.73;100.00;100202.45;104934;1303;23168;-31
2023/01/22 03:03:06;;;;;;;57.40;22.00;;;;;;;-0.74;100.00;100207.27;104844;1303;22929;-35
2023/01/22 03:05:33;;;;;;;45.50;21.10;;;;;;;-0.77;100.00;100206.63;105019;1299;23172;-35
2023/01/22 03:08:00;;;;;;;52.20;22.60;;;;;;;-0.76;100.00;100207.09;104941;1298;22888;-31
2023/01/22 03:10:26;;;;;;;53.20;23.20;;;;;;;-0.77;100.00;100208.93;104876;1303;24397;-34
2023/01/22 03:23:26;;;;;;;25.10;12.70;;;;;;;-0.77;100.00;100207.20;104893;1300;23191;-31
2023/01/22 03:25:55;;;;;;;17.80;9.50;;;;;;;-0.80;100.00;100207.86;104781;1303;24403;-31
2023/01/22 03:28:21;;;;;;;16.30;8.70;;;;;;;-0.76;100.00;100200.05;104829;1301;24397;-35
2023/01/22 03:30:47;;;;;;;21.50;8.60;;;;;;;-0.77;100.00;100201.88;104938;1303;24387;-31
2023/01/22 03:33:12;;;;;;;24.80;11.70;;;;;;;-0.78;100.00;100207.94;105074;1303;23141;-35
2023/01/22 03:35:38;;;;;;;9.70;6.60;;;;;;;-0.78;100.00;100209.14;104992;1303;24849;-35
2023/01/22 03:38:04;;;;;;;17.70;10.00;;;;;;;-102.56;19.20;20040.14;102112;1298;1003036;-31
2023/01/22 03:40:29;;;;;;;25.60;11.90;;;;;;;-128.00;-1.00;-1.00;101268;1303;1003680;-30
2023/01/22 03:42:55;;;;;;;31.80;15.20;;;;;;;-128.00;-1.00;-1.00;101324;1303;1004450;-31
2023/01/22 03:45:21;;;;;;;26.20;11.80;;;;;;;-128.00;-1.00;-1.00;101333;1303;1004459;-36
2023/01/22 03:47:46;;;;;;;23.20;11.20;;;;;;;-128.00;-1.00;-1.00;101425;1303;1003250;-35
2023/01/22 03:50:12;;;;;;;38.00;15.70;;;;;;;-128.00;-1.00;-1.00;101350;1303;1005118;-32
2023/01/22 03:52:38;;;;;;;30.60;13.60;;;;;;;-128.00;-1.00;-1.00;101332;1303;1003080;-34
2023/01/22 03:55:05;;;;;;;22.50;11.60;;;;;;;-128.00;-1.00;-1.00;101392;1303;1002560;-31
2023/01/22 03:57:30;;;;;;;25.00;12.10;;;;;;;-128.00;-1.00;-1.00;101307;1303;1003666;-34
2023/01/22 04:00:00;;;;;;;25.30;10.90;;;;;;;-128.00;-1.00;-1.00;101396;1303;1003648;-30
2023/01/22 04:02:27;;;;;;;22.20;11.00;;;;;;;-128.00;-1.00;-1.00;101242;1303;1003663;-31
2023/01/22 04:04:53;;;;;;;26.70;12.20;;;;;;;-128.00;-1.00;-1.00;101448;1303;1003938;-32
2023/01/22 04:07:18;;;;;;;26.60;12.60;;;;;;;-128.00;-1.00;-1.00;101341;1303;1004633;-31
2023/01/22 04:09:44;;;;;;;19.10;10.60;;;;;;;-128.00;-1.00;-1.00;101336;1303;1003172;-35
2023/01/22 04:12:10;;;;;;;26.00;11.40;;;;;;;-128.00;-1.00;-1.00;101369;1303;1003144;-36
2023/01/22 04:14:35;;;;;;;22.50;11.60;;;;;;;-128.00;-1.00;-1.00;101395;1303;1002935;-34
2023/01/22 04:17:01;;;;;;;30.20;9.70;;;;;;;-128.00;-1.00;-1.00;101419;1303;1003527;-35
2023/01/22 04:19:27;;;;;;;34.00;12.90;;;;;;;-128.00;-1.00;-1.00;101401;1303;1004675;-31
2023/01/22 04:21:53;;;;;;;30.30;13.10;;;;;;;-128.00;-1.00;-1.00;101158;1303;1004023;-34
2023/01/22 04:24:18;;;;;;;39.00;15.10;;;;;;;-128.00;-1.00;-1.00;101368;1303;1005029;-34
2023/01/22 04:26:45;;;;;;;21.00;11.70;;;;;;;-128.00;-1.00;-1.00;101342;1303;1003311;-31
2023/01/22 04:29:10;;;;;;;27.30;14.60;;;;;;;-128.00;-1.00;-1.00;101329;1301;1002374;-31
2023/01/22 04:31:36;;;;;;;23.50;12.10;;;;;;;-128.00;-1.00;-1.00;101399;1303;1004379;-31
2023/01/22 04:34:02;;;;;;;22.50;11.50;;;;;;;-128.00;-1.00;-1.00;101342;1303;1003391;-33
2023/01/22 04:36:28;;;;;;;17.50;9.90;;;;;;;-128.00;-1.00;-1.00;101336;1303;1003044;-34
2023/01/22 05:15:33;;;;;;;23.60;12.80;;;;;;;-1.01;100.00;100263.45;104303;1299;557645;-31
2023/01/22 05:17:59;;;;;;;17.90;10.60;;;;;;;-1.00;100.00;100278.51;104088;1304;506307;-30
2023/01/22 05:20:25;;;;;;;28.10;12.30;;;;;;;-1.02;100.00;100283.73;104656;1304;22657;-34
2023/01/22 05:22:51;;;;;;;30.00;13.20;;;;;;;-0.98;100.00;100279.92;104690;1292;22994;-30
2023/01/22 05:25:17;;;;;;;26.90;11.80;;;;;;;-0.98;100.00;100282.41;104736;1289;22696;-34
2023/01/22 05:27:43;;;;;;;36.40;13.20;;;;;;;-1.00;100.00;100280.96;104581;1295;22671;-34
2023/01/22 05:30:09;;;;;;;28.70;15.00;;;;;;;-1.01;100.00;100279.27;104820;1292;22822;-34
2023/01/22 05:32:35;;;;;;;34.60;14.90;;;;;;;-1.03;100.00;100278.31;104477;1282;24863;-30
2023/01/22 05:35:02;;;;;;;25.50;11.80;;;;;;;-1.03;100.00;100279.58;104758;1304;23964;-35
2023/01/22 05:37:27;;;;;;;42.90;17.10;;;;;;;-1.05;100.00;100286.35;104643;1304;22665;-31
2023/01/22 05:39:53;;;;;;;28.70;13.50;;;;;;;-1.07;100.00;100289.48;104747;1292;23250;-31
2023/01/22 05:42:19;;;;;;;23.20;12.90;;;;;;;-1.05;100.00;100287.98;104589;1304;26088;-31
2023/01/22 05:44:45;;;;;;;15.20;7.70;;;;;;;-1.01;100.00;100283.28;104646;1301;24309;-31
2023/01/22 05:47:11;;;;;;;16.20;9.30;;;;;;;-0.94;100.00;100279.70;104644;1304;22822;-31
2023/01/22 05:49:37;;;;;;;21.90;12.50;;;;;;;-0.88;100.00;100280.69;104638;1292;24430;-32
2023/01/22 05:52:03;;;;;;;27.40;14.00;;;;;;;-0.91;100.00;100277.18;104725;1292;22672;-31
2023/01/22 05:54:29;;;;;;;24.60;12.00;;;;;;;-0.96;100.00;100272.58;104708;1304;23108;-31
2023/01/22 05:56:55;;;;;;;18.30;10.80;;;;;;;-0.96;100.00;100265.90;104773;1293;23028;-31
2023/01/22 05:59:20;;;;;;;22.90;12.80;;;;;;;-1.01;100.00;100268.34;104662;1304;22807;-34
2023/01/22 06:01:46;;;;;;;26.20;14.00;;;;;;;-1.03;100.00;100268.13;104685;1292;22818;-34
2023/01/22 06:04:12;;;;;;;18.20;10.80;;;;;;;-0.93;100.00;100267.84;104710;1292;22627;-32
2023/01/22 06:06:37;;;;;;;22.60;10.30;;;;;;;-0.99;100.00;100269.94;104760;1292;22802;-33
2023/01/22 06:09:03;;;;;;;25.20;12.10;;;;;;;-0.99;100.00;100268.71;104797;1292;22802;-32
2023/01/22 06:11:29;;;;;;;34.60;17.60;;;;;;;-0.94;100.00;100265.43;104678;1292;22678;-34
2023/01/22 06:13:55;;;;;;;33.10;17.10;;;;;;;-0.86;100.00;100270.19;104669;1292;22663;-35
2023/01/22 06:16:21;;;;;;;28.40;14.90;;;;;;;-0.93;100.00;100275.02;104534;1304;23039;-34
2023/01/22 06:18:47;;;;;;;21.00;12.80;;;;;;;-0.91;100.00;100267.92;104509;1304;23025;-34
2023/01/22 06:21:13;;;;;;;26.30;13.50;;;;;;;-0.92;100.00;100272.54;104640;1292;22821;-30
2023/01/22 06:23:38;;;;;;;21.20;10.70;;;;;;;-0.91;100.00;100285.44;104598;1304;22693;-31
2023/01/22 06:26:04;;;;;;;25.80;13.40;;;;;;;-0.84;100.00;100290.13;104651;1304;22802;-34
2023/01/22 06:28:31;;;;;;;23.10;12.50;;;;;;;-0.84;100.00;100295.35;104571;1304;22562;-33
2023/01/22 06:30:58;;;;;;;14.90;8.90;;;;;;;-0.93;100.00;100300.17;104594;1289;22665;-30
2023/01/22 06:33:24;;;;;;;17.90;10.80;;;;;;;-0.97;100.00;100292.69;104777;1293;25568;-34
2023/01/22 06:35:53;;;;;;;14.20;7.90;;;;;;;-0.96;100.00;100293.33;104607;1304;24358;-34
2023/01/22 06:38:19;;;;;;;16.10;8.30;;;;;;;-0.93;100.00;100292.64;103895;1292;1002897;-31
2023/01/22 06:40:51;;;;;;;19.10;9.90;;;;;;;-0.89;100.00;100298.36;104649;1301;22812;-31
2023/01/22 06:43:16;;;;;;;24.70;12.30;;;;;;;-0.83;100.00;100311.27;104799;1292;22663;-33
2023/01/22 06:45:42;;;;;;;16.90;8.90;;;;;;;-0.80;100.00;100309.31;104767;1301;23039;-33
2023/01/22 06:48:08;;;;;;;18.30;9.50;;;;;;;-0.80;100.00;100306.20;104752;1301;22678;-30
2023/01/22 06:50:34;;;;;;;24.80;13.10;;;;;;;-0.78;100.00;100311.33;104624;1304;22752;-30
2023/01/22 06:53:00;;;;;;;16.80;10.00;;;;;;;-0.77;100.00;100316.01;104567;1295;25435;-34
2023/01/22 06:55:26;;;;;;;17.40;10.50;;;;;;;-0.80;100.00;100319.39;104625;1304;22995;-34
2023/01/22 06:57:54;;;;;;;22.10;12.30;;;;;;;-0.76;100.00;100323.50;104693;1304;22677;-30
2023/01/22 07:00:21;;;;;;;31.50;15.70;;;;;;;-0.75;100.00;100331.17;104662;1292;22782;-31
2023/01/22 07:02:46;;;;;;;24.60;14.10;;;;;;;-0.74;100.00;100328.83;104468;1294;22654;-34
2023/01/22 07:05:14;;;;;;;31.40;15.80;;;;;;;-0.75;100.00;100331.69;104042;1292;1004431;-30
2023/01/22 07:07:40;;;;;;;38.90;17.20;;;;;;;-0.75;100.00;100337.13;104906;1301;22673;-30
2023/01/22 07:10:07;;;;;;;29.40;14.40;;;;;;;-0.77;100.00;100344.28;104747;1298;25365;-31
2023/01/22 07:12:33;;;;;;;41.20;18.60;;;;;;;-0.73;100.00;100343.70;104753;1302;22879;-36
2023/01/22 07:14:59;;;;;;;39.00;19.50;;;;;;;-0.72;100.00;100341.66;104895;1304;22659;-34
2023/01/22 07:17:25;;;;;;;42.10;23.30;;;;;;;-0.65;100.00;100348.24;104741;1301;22514;-34
2023/01/22 07:19:51;;;;;;;40.00;18.80;;;;;;;-0.63;100.00;100355.70;104752;1301;23039;-31
2023/01/22 07:22:17;;;;;;;39.40;21.00;;;;;;;-0.65;100.00;100362.52;104777;1301;22667;-31
2023/01/22 07:24:43;;;;;;;48.90;24.50;;;;;;;-0.66;100.00;100367.20;104870;1298;22682;-31
2023/01/22 07:27:09;;;;;;;70.70;33.60;;;;;;;-0.67;100.00;100371.42;104735;1298;22690;-31
2023/01/22 07:29:34;;;;;;;92.00;43.20;;;;;;;-0.65;100.00;100374.30;104495;1304;22676;-31
2023/01/22 07:32:00;;;;;;;58.90;27.20;;;;;;;-0.63;100.00;100385.61;104649;1304;23035;-31
2023/01/22 07:34:26;;;;;;;67.20;27.60;;;;;;;-0.60;100.00;100391.88;104662;1304;23027;-34
2023/01/22 07:36:52;;;;;;;47.10;21.20;;;;;;;-0.59;100.00;100393.94;104921;1301;22818;-31
2023/01/22 07:39:17;;;;;;;59.80;25.30;;;;;;;-0.62;100.00;100386.23;104728;1300;22658;-34
2023/01/22 07:41:43;;;;;;;106.30;38.70;;;;;;;-0.66;100.00;100383.14;104760;1301;22676;-31
2023/01/22 07:44:10;;;;;;;43.40;19.00;;;;;;;-0.58;100.00;100381.73;104678;1304;24448;-35
2023/01/22 07:46:35;;;;;;;55.20;23.90;;;;;;;-0.58;100.00;100382.65;104753;1304;22822;-31
2023/01/22 07:49:01;;;;;;;35.50;17.40;;;;;;;-0.55;100.00;100386.27;104771;1304;23027;-31
2023/01/22 07:51:27;;;;;;;45.40;19.60;;;;;;;-0.56;100.00;100388.98;104843;1301;22809;-30
2023/01/22 07:53:53;;;;;;;45.60;21.40;;;;;;;-0.57;100.00;100385.90;104770;1301;22798;-34
2023/01/22 07:56:18;;;;;;;74.40;30.80;;;;;;;-0.60;100.00;100390.88;104853;1301;22682;-34
2023/01/22 07:58:45;;;;;;;39.50;18.90;;;;;;;-0.57;100.00;100384.33;104644;1301;22712;-34
2023/01/22 08:01:11;;;;;;;44.70;22.40;;;;;;;-0.56;100.00;100386.88;104680;1301;22801;-35
2023/01/22 08:03:37;;;;;;;45.50;20.60;;;;;;;-0.57;100.00;100390.14;104761;1298;22633;-35
2023/01/22 08:06:10;;;;;;;59.90;21.50;;;;;;;-0.53;100.00;100396.85;104745;1301;23049;-30
2023/01/22 08:08:36;;;;;;;50.60;24.90;;;;;;;-0.52;100.00;100392.59;104739;1304;22660;-37
2023/01/22 08:11:02;;;;;;;44.30;25.40;;;;;;;-0.47;100.00;100380.81;104715;1299;22828;-32
2023/01/22 08:13:27;;;;;;;51.50;27.80;;;;;;;-0.43;100.00;100379.55;104706;1289;22815;-33
2023/01/22 08:15:56;;;;;;;75.10;43.60;;;;;;;-0.45;100.00;100381.39;104773;1304;22561;-34
2023/01/22 08:18:22;;;;;;;42.10;24.00;;;;;;;-0.36;100.00;100380.08;104861;1301;22658;-31
2023/01/22 08:20:48;;;;;;;92.30;55.80;;;;;;;-0.37;100.00;100382.29;104726;1301;22642;-31
2023/01/22 08:23:14;;;;;;;119.90;53.30;;;;;;;-0.37;100.00;100387.44;104730;1301;22811;-32
2023/01/22 08:25:40;;;;;;;149.10;50.50;;;;;;;-0.38;100.00;100398.22;104739;1304;22792;-35
2023/01/22 08:28:05;;;;;;;54.10;27.40;;;;;;;-0.36;100.00;100398.94;104802;1301;22620;-32
2023/01/22 08:30:32;;;;;;;74.60;29.90;;;;;;;-0.29;100.00;100396.50;104901;1301;23171;-35
2023/01/22 08:32:58;;;;;;;62.90;20.60;;;;;;;-0.28;100.00;100402.77;104735;1304;23187;-32
2023/01/22 08:35:24;;;;;;;90.80;27.60;;;;;;;-0.30;100.00;100407.70;104684;1304;22825;-34
2023/01/22 08:37:49;;;;;;;164.90;37.30;;;;;;;-0.31;100.00;100413.91;104728;1301;23033;-32
2023/01/22 08:40:16;;;;;;;86.50;31.90;;;;;;;-0.30;100.00;100418.77;104762;1301;22675;-35
2023/01/22 08:42:41;;;;;;;18.00;10.80;;;;;;;-0.29;100.00;100431.03;104756;1304;23094;-34
2023/01/22 08:45:08;;;;;;;37.70;17.10;;;;;;;-0.31;100.00;100430.50;104790;1304;22671;-32
2023/01/22 08:47:33;;;;;;;23.10;12.00;;;;;;;-0.32;100.00;100443.38;104792;1301;22618;-37
2023/01/22 08:50:01;;;;;;;60.10;26.70;;;;;;;-0.34;100.00;100443.48;104837;1301;25918;-36
2023/01/22 08:52:27;;;;;;;18.90;7.70;;;;;;;-0.29;100.00;100448.13;104778;1304;25340;-37
2023/01/22 08:54:53;;;;;;;84.60;31.10;;;;;;;-0.34;100.00;100441.73;104763;1301;22683;-34
2023/01/22 08:57:19;;;;;;;94.10;46.00;;;;;;;-0.30;100.00;100442.55;104771;1301;22673;-31
2023/01/22 08:59:44;;;;;;;78.40;32.20;;;;;;;-0.31;100.00;100435.76;104724;1301;22995;-34
2023/01/22 09:02:13;;;;;;;50.70;25.50;;;;;;;-0.26;100.00;100426.23;104700;1304;22790;-35
2023/01/22 09:04:40;;;;;;;23.60;12.50;;;;;;;-0.24;100.00;100432.08;104863;1301;24401;-35
2023/01/22 09:07:07;;;;;;;74.70;36.10;;;;;;;-0.29;100.00;100437.00;104713;1301;22667;-34
2023/01/22 09:09:33;;;;;;;110.80;67.70;;;;;;;-0.28;100.00;100444.48;104753;1298;23039;-34
2023/01/22 09:11:59;;;;;;;48.70;28.50;;;;;;;-0.31;100.00;100447.20;104793;1300;24270;-34
2023/01/22 09:14:24;;;;;;;59.20;35.10;;;;;;;-0.28;100.00;100452.42;104828;1301;22875;-31
2023/01/22 09:16:50;;;;;;;46.20;26.70;;;;;;;-0.30;100.00;100456.95;104716;1302;25675;-34
2023/01/22 09:19:16;;;;;;;63.70;34.20;;;;;;;-0.26;100.00;100460.58;104668;1298;22799;-34
2023/01/22 09:21:42;;;;;;;21.90;11.10;;;;;;;-0.28;100.00;100462.98;104871;1301;22956;-31
2023/01/22 09:24:07;;;;;;;57.30;30.80;;;;;;;-0.28;100.00;100466.69;104670;1301;23039;-32
2023/01/22 09:26:34;;;;;;;31.90;15.40;;;;;;;-0.23;100.00;100466.49;104671;1301;22696;-31
2023/01/22 09:29:00;;;;;;;52.60;32.30;;;;;;;-0.16;100.00;100461.50;104680;1301;22663;-35
2023/01/22 09:31:26;;;;;;;36.40;20.20;;;;;;;-0.08;100.00;100458.30;104771;1298;23039;-34
2023/01/22 09:33:54;;;;;;;37.20;20.40;;;;;;;-0.05;100.00;100456.17;104718;1301;24404;-31
2023/01/22 09:36:20;;;;;;;49.10;26.60;;;;;;;-0.02;100.00;100455.99;104753;1301;22565;-33
2023/01/22 09:38:46;;;;;;;20.60;10.90;;;;;;;0.04;100.00;100450.68;104709;1304;25266;-32
2023/01/22 09:41:33;;;;;;;27.50;11.30;;;;;;;0.12;100.00;100445.54;104743;1302;22562;-31
2023/01/22 09:44:15;;;;;;;22.30;12.10;;;;;;;0.29;100.00;100437.12;104738;1304;22672;-34
2023/01/22 09:46:58;;;;;;;30.50;17.60;;;;;;;0.35;100.00;100437.59;104633;1301;22806;-34
2023/01/22 09:49:28;;;;;;;34.40;14.60;;;;;;;0.43;100.00;100433.92;104795;1298;26542;-35
2023/01/22 09:51:58;;;;;;;29.90;11.90;;;;;;;0.52;100.00;100434.33;104890;1302;22803;-35
2023/01/22 09:54:24;;;;;;;42.60;19.10;;;;;;;0.61;100.00;100431.77;104701;1302;22600;-33
2023/01/22 09:56:51;;;;;;;56.30;24.10;;;;;;;0.65;100.00;100427.05;104701;1301;22793;-31
2023/01/22 09:59:38;;;;;;;44.50;23.40;;;;;;;0.62;100.00;100419.38;104937;1298;22559;-32
2023/01/22 10:02:21;;;;;;;39.90;19.20;;;;;;;0.58;100.00;100412.98;104805;1301;22672;-31
2023/01/22 10:04:47;;;;;;;35.00;17.30;;;;;;;0.56;100.00;100405.33;104721;1301;22758;-30
2023/01/22 10:07:25;;;;;;;39.40;18.30;;;;;;;0.53;100.00;100403.42;104767;1298;22716;-31
2023/01/22 10:09:53;;;;;;;38.20;12.70;;;;;;;0.50;100.00;100410.12;104819;1298;22668;-31
2023/01/22 10:12:19;;;;;;;45.80;18.90;;;;;;;0.50;100.00;100415.98;104735;1302;22666;-33
2023/01/22 10:14:45;;;;;;;51.00;20.40;;;;;;;0.51;100.00;100424.20;104737;1302;22676;-33
2023/01/22 10:17:23;;;;;;;34.10;15.80;;;;;;;0.54;100.00;100422.05;104667;1301;22993;-30
2023/01/22 10:19:53;;;;;;;38.80;18.00;;;;;;;0.54;100.00;100417.60;104718;1302;23160;-34
2023/01/22 10:22:23;;;;;;;44.50;18.50;;;;;;;0.42;100.00;100415.83;104779;1300;23043;-37
2023/01/22 10:24:54;;;;;;;36.30;15.70;;;;;;;0.51;100.00;100416.45;104675;1301;23027;-34
2023/01/22 10:27:36;;;;;;;44.40;20.90;;;;;;;0.56;100.00;100412.05;104747;1304;22826;-31
2023/01/22 10:30:16;;;;;;;42.30;20.00;;;;;;;0.59;100.00;100410.23;104704;1302;22677;-34
2023/01/22 10:32:41;;;;;;;17.40;10.20;;;;;;;0.63;100.00;100412.73;104747;1301;23161;-34
2023/01/22 10:35:19;;;;;;;32.80;14.00;;;;;;;0.68;100.00;100414.67;104753;1304;22748;-31
2023/01/22 10:37:47;;;;;;;30.80;14.40;;;;;;;0.66;100.00;100415.20;104753;1301;22677;-34
2023/01/22 10:40:32;;;;;;;43.60;14.70;;;;;;;0.67;100.00;100416.54;104681;1304;23049;-31
2023/01/22 10:42:59;;;;;;;49.40;21.50;;;;;;;0.71;100.00;100412.55;104684;1301;22665;-31
2023/01/22 10:45:25;;;;;;;35.40;19.40;;;;;;;0.75;100.00;100417.39;104626;1304;22782;-31
2023/01/22 10:48:02;;;;;;;45.00;23.70;;;;;;;0.82;100.00;100417.58;104747;1298;22643;-35
2023/01/22 10:50:28;;;;;;;31.50;15.20;;;;;;;0.99;100.00;100419.73;104678;1301;22795;-34
2023/01/22 10:52:54;;;;;;;42.10;22.20;;;;;;;1.05;100.00;100424.91;104781;1302;23004;-34
2023/01/22 10:55:21;;;;;;;36.70;17.60;;;;;;;1.19;100.00;100429.18;104835;1301;22837;-31
2023/01/22 10:57:51;;;;;;;57.10;24.00;;;;;;;1.16;100.00;100424.15;104829;1302;24235;-29
2023/01/22 11:00:22;;;;;;;96.00;39.30;;;;;;;1.04;100.00;100428.73;104864;1301;22566;-30
2023/01/22 11:02:48;;;;;;;88.30;33.40;;;;;;;1.02;100.00;100422.34;104734;1302;22567;-34
2023/01/22 11:45:32;;;;;;;36.40;16.70;;;;;;;0.87;100.00;100432.23;104349;1296;558775;-34
2023/01/22 11:48:09;;;;;;;40.90;17.50;;;;;;;0.69;100.00;100431.33;104179;1295;531280;-35
2023/01/22 11:50:41;;;;;;;47.50;19.90;;;;;;;0.57;100.00;100438.20;104842;1302;22643;-31
2023/01/22 11:53:16;;;;;;;68.30;23.70;;;;;;;0.47;100.00;100432.36;104734;1286;25513;-34
2023/01/22 11:55:50;;;;;;;83.00;32.20;;;;;;;0.50;100.00;100427.81;104744;1300;22566;-34
2023/01/22 11:58:28;;;;;;;89.40;36.80;;;;;;;0.48;100.00;100429.11;104757;1298;23080;-34
2023/01/22 12:01:22;;;;;;;84.80;30.50;;;;;;;0.43;100.00;100425.02;104736;1296;22642;-31
2023/01/22 12:04:10;;;;;;;88.30;29.90;;;;;;;0.36;100.00;100419.53;104847;1302;23035;-35
2023/01/22 12:06:59;;;;;;;72.70;27.90;;;;;;;0.38;100.00;100414.84;104646;1301;23157;-29
2023/01/22 12:09:54;;;;;;;78.50;27.00;;;;;;;0.35;100.00;100415.57;104759;1292;24183;-34
2023/01/22 12:12:30;;;;;;;;;;;;;;;0.31;100.00;100414.96;104674;1303;22869;-35
2023/01/22 12:15:28;;;;;;;80.90;29.80;;;;;;;0.34;100.00;100421.45;104715;1301;23446;-31
2023/01/22 12:18:17;;;;;;;68.70;24.30;;;;;;;0.31;100.00;100422.78;104731;1292;23182;-31
2023/01/22 12:20:56;;;;;;;75.40;28.60;;;;;;;0.26;100.00;100424.34;104697;1303;23032;-33
2023/01/22 12:23:29;;;;;;;66.30;26.10;;;;;;;0.35;100.00;100428.10;104720;1303;23163;-30
2023/01/22 12:26:04;;;;;;;58.40;21.70;;;;;;;0.23;100.00;100425.41;104693;1292;22799;-33
2023/01/22 12:28:43;;;;;;;61.90;20.70;;;;;;;0.24;100.00;100423.92;104738;1293;24429;-30
2023/01/22 12:31:13;;;;;;;42.80;15.60;;;;;;;0.16;100.00;100414.27;104669;1304;22621;-34